sensor_id;sensor_type;location;lat;lon;timestamp;P1;durP1;ratioP1;P2;durP2;ratioP2
72941;SDS011;69665;55.822;37.330;2023-07-29T00:00:57;6.25;;;2.33;;
72941;SDS011;69665;55.822;37.330;2023-07-29T00:03:22;5.00;;;2.13;;
72941;SDS011;69665;55.822;37.330;2023-07-29T00:05:48;6.05;;;2.40;;
72941;SDS011;69665;55.822;37.330;2023-07-29T00:08:14;4.68;;;2.15;;
72941;SDS011;69665;55.822;37.330;2023-07-29T00:10:39;5.57;;;1.92;;
72941;SDS011;69665;55.822;37.330;2023-07-29T00:13:05;7.40;;;2.45;;
72941;SDS011;69665;55.822;37.330;2023-07-29T00:15:31;6.28;;;2.53;;
72941;SDS011;69665;55.822;37.330;2023-07-29T00:17:56;6.07;;;2.35;;
72941;SDS011;69665;55.822;37.330;2023-07-29T00:20:22;4.75;;;2.38;;
72941;SDS011;69665;55.822;37.330;2023-07-29T00:22:47;4.88;;;2.30;;
72941;SDS011;69665;55.822;37.330;2023-07-29T00:25:15;6.00;;;2.20;;
72941;SDS011;69665;55.822;37.330;2023-07-29T00:27:41;7.97;;;2.40;;
72941;SDS011;69665;55.822;37.330;2023-07-29T00:30:07;6.65;;;2.65;;
72941;SDS011;69665;55.822;37.330;2023-07-29T00:32:33;6.45;;;2.90;;
72941;SDS011;69665;55.822;37.330;2023-07-29T00:34:58;5.22;;;2.50;;
72941;SDS011;69665;55.822;37.330;2023-07-29T00:37:27;7.85;;;2.50;;
72941;SDS011;69665;55.822;37.330;2023-07-29T00:39:52;5.53;;;2.40;;
72941;SDS011;69665;55.822;37.330;2023-07-29T00:42:18;7.22;;;2.67;;
72941;SDS011;69665;55.822;37.330;2023-07-29T00:44:43;5.38;;;2.45;;
72941;SDS011;69665;55.822;37.330;2023-07-29T00:47:09;5.32;;;2.88;;
72941;SDS011;69665;55.822;37.330;2023-07-29T00:49:36;4.93;;;2.40;;
72941;SDS011;69665;55.822;37.330;2023-07-29T00:52:02;5.10;;;2.38;;
72941;SDS011;69665;55.822;37.330;2023-07-29T00:54:28;5.55;;;2.70;;
72941;SDS011;69665;55.822;37.330;2023-07-29T00:56:56;4.88;;;2.42;;
72941;SDS011;69665;55.822;37.330;2023-07-29T00:59:22;5.57;;;2.58;;
72941;SDS011;69665;55.822;37.330;2023-07-29T01:01:48;5.88;;;2.30;;
72941;SDS011;69665;55.822;37.330;2023-07-29T01:04:14;4.78;;;2.38;;
72941;SDS011;69665;55.822;37.330;2023-07-29T01:09:20;5.05;;;2.25;;
72941;SDS011;69665;55.822;37.330;2023-07-29T01:16:55;7.10;;;2.78;;
72941;SDS011;69665;55.822;37.330;2023-07-29T01:21:53;4.43;;;2.22;;
72941;SDS011;69665;55.822;37.330;2023-07-29T01:24:20;6.22;;;2.70;;
72941;SDS011;69665;55.822;37.330;2023-07-29T01:26:45;5.80;;;2.50;;
72941;SDS011;69665;55.822;37.330;2023-07-29T01:29:11;8.20;;;2.65;;
72941;SDS011;69665;55.822;37.330;2023-07-29T01:31:39;4.60;;;2.38;;
72941;SDS011;69665;55.822;37.330;2023-07-29T01:34:14;6.47;;;2.65;;
72941;SDS011;69665;55.822;37.330;2023-07-29T01:36:42;6.93;;;2.35;;
72941;SDS011;69665;55.822;37.330;2023-07-29T01:39:08;7.80;;;2.80;;
72941;SDS011;69665;55.822;37.330;2023-07-29T01:44:03;5.28;;;2.58;;
72941;SDS011;69665;55.822;37.330;2023-07-29T01:46:31;5.20;;;2.88;;
72941;SDS011;69665;55.822;37.330;2023-07-29T01:48:57;5.97;;;2.72;;
72941;SDS011;69665;55.822;37.330;2023-07-29T01:51:22;5.85;;;2.33;;
72941;SDS011;69665;55.822;37.330;2023-07-29T01:53:48;5.80;;;2.60;;
72941;SDS011;69665;55.822;37.330;2023-07-29T01:56:14;6.80;;;3.03;;
72941;SDS011;69665;55.822;37.330;2023-07-29T01:58:48;5.93;;;2.55;;
72941;SDS011;69665;55.822;37.330;2023-07-29T02:01:13;6.43;;;2.80;;
72941;SDS011;69665;55.822;37.330;2023-07-29T02:03:40;6.60;;;2.95;;
72941;SDS011;69665;55.822;37.330;2023-07-29T02:06:06;5.90;;;2.50;;
72941;SDS011;69665;55.822;37.330;2023-07-29T02:08:32;6.05;;;2.75;;
72941;SDS011;69665;55.822;37.330;2023-07-29T02:10:57;5.40;;;2.70;;
72941;SDS011;69665;55.822;37.330;2023-07-29T02:13:23;5.53;;;2.53;;
72941;SDS011;69665;55.822;37.330;2023-07-29T02:15:49;5.97;;;2.67;;
72941;SDS011;69665;55.822;37.330;2023-07-29T02:18:15;6.28;;;2.70;;
72941;SDS011;69665;55.822;37.330;2023-07-29T02:20:40;6.25;;;2.75;;
72941;SDS011;69665;55.822;37.330;2023-07-29T02:23:07;5.45;;;2.58;;
72941;SDS011;69665;55.822;37.330;2023-07-29T02:25:35;7.60;;;3.30;;
72941;SDS011;69665;55.822;37.330;2023-07-29T02:28:00;5.72;;;3.20;;
72941;SDS011;69665;55.822;37.330;2023-07-29T02:30:25;7.30;;;3.10;;
72941;SDS011;69665;55.822;37.330;2023-07-29T02:32:51;5.55;;;2.90;;
72941;SDS011;69665;55.822;37.330;2023-07-29T02:35:17;6.93;;;2.80;;
72941;SDS011;69665;55.822;37.330;2023-07-29T02:37:42;6.80;;;2.75;;
72941;SDS011;69665;55.822;37.330;2023-07-29T02:40:08;7.50;;;3.10;;
72941;SDS011;69665;55.822;37.330;2023-07-29T02:42:34;7.40;;;2.88;;
72941;SDS011;69665;55.822;37.330;2023-07-29T02:44:59;5.60;;;3.00;;
72941;SDS011;69665;55.822;37.330;2023-07-29T02:47:25;6.25;;;2.65;;
72941;SDS011;69665;55.822;37.330;2023-07-29T02:49:50;6.53;;;3.10;;
72941;SDS011;69665;55.822;37.330;2023-07-29T02:52:16;7.90;;;3.60;;
72941;SDS011;69665;55.822;37.330;2023-07-29T02:54:41;7.47;;;3.50;;
72941;SDS011;69665;55.822;37.330;2023-07-29T02:57:07;6.82;;;3.40;;
72941;SDS011;69665;55.822;37.330;2023-07-29T02:59:33;6.70;;;3.30;;
72941;SDS011;69665;55.822;37.330;2023-07-29T03:01:58;8.60;;;4.15;;
72941;SDS011;69665;55.822;37.330;2023-07-29T03:04:24;6.95;;;3.33;;
72941;SDS011;69665;55.822;37.330;2023-07-29T03:06:50;6.72;;;3.35;;
72941;SDS011;69665;55.822;37.330;2023-07-29T03:09:15;6.57;;;3.10;;
72941;SDS011;69665;55.822;37.330;2023-07-29T03:11:41;8.88;;;3.70;;
72941;SDS011;69665;55.822;37.330;2023-07-29T03:14:06;7.25;;;3.28;;
72941;SDS011;69665;55.822;37.330;2023-07-29T03:16:32;8.68;;;3.10;;
72941;SDS011;69665;55.822;37.330;2023-07-29T03:18:59;11.30;;;3.70;;
72941;SDS011;69665;55.822;37.330;2023-07-29T03:21:26;7.93;;;3.95;;
72941;SDS011;69665;55.822;37.330;2023-07-29T03:23:51;6.93;;;2.88;;
72941;SDS011;69665;55.822;37.330;2023-07-29T03:26:17;7.07;;;3.67;;
72941;SDS011;69665;55.822;37.330;2023-07-29T03:28:42;6.38;;;3.40;;
72941;SDS011;69665;55.822;37.330;2023-07-29T03:31:09;5.97;;;3.35;;
72941;SDS011;69665;55.822;37.330;2023-07-29T03:33:34;6.60;;;3.10;;
72941;SDS011;69665;55.822;37.330;2023-07-29T03:36:00;6.32;;;2.83;;
72941;SDS011;69665;55.822;37.330;2023-07-29T03:38:26;7.63;;;3.50;;
72941;SDS011;69665;55.822;37.330;2023-07-29T03:40:51;6.72;;;2.97;;
72941;SDS011;69665;55.822;37.330;2023-07-29T03:43:19;7.43;;;3.42;;
72941;SDS011;69665;55.822;37.330;2023-07-29T03:45:44;5.97;;;3.20;;
72941;SDS011;69665;55.822;37.330;2023-07-29T03:48:10;9.20;;;4.05;;
72941;SDS011;69665;55.822;37.330;2023-07-29T03:50:35;6.50;;;3.13;;
72941;SDS011;69665;55.822;37.330;2023-07-29T03:53:02;8.80;;;3.53;;
72941;SDS011;69665;55.822;37.330;2023-07-29T03:55:28;6.13;;;3.10;;
72941;SDS011;69665;55.822;37.330;2023-07-29T03:57:58;6.40;;;3.33;;
72941;SDS011;69665;55.822;37.330;2023-07-29T04:00:24;8.07;;;3.97;;
72941;SDS011;69665;55.822;37.330;2023-07-29T04:02:50;6.93;;;3.60;;
72941;SDS011;69665;55.822;37.330;2023-07-29T04:05:16;6.60;;;3.63;;
72941;SDS011;69665;55.822;37.330;2023-07-29T04:07:42;8.70;;;3.72;;
72941;SDS011;69665;55.822;37.330;2023-07-29T04:10:08;8.57;;;3.53;;
72941;SDS011;69665;55.822;37.330;2023-07-29T04:12:34;6.30;;;3.22;;
72941;SDS011;69665;55.822;37.330;2023-07-29T04:14:59;6.78;;;3.53;;
72941;SDS011;69665;55.822;37.330;2023-07-29T04:17:25;6.32;;;3.17;;
72941;SDS011;69665;55.822;37.330;2023-07-29T04:19:51;5.95;;;3.40;;
72941;SDS011;69665;55.822;37.330;2023-07-29T04:22:18;8.25;;;3.45;;
72941;SDS011;69665;55.822;37.330;2023-07-29T04:24:44;8.25;;;4.15;;
72941;SDS011;69665;55.822;37.330;2023-07-29T04:27:09;7.38;;;3.03;;
72941;SDS011;69665;55.822;37.330;2023-07-29T04:29:35;5.57;;;3.20;;
72941;SDS011;69665;55.822;37.330;2023-07-29T04:32:01;6.95;;;3.40;;
72941;SDS011;69665;55.822;37.330;2023-07-29T04:34:27;6.20;;;2.90;;
72941;SDS011;69665;55.822;37.330;2023-07-29T04:36:52;5.35;;;2.78;;
72941;SDS011;69665;55.822;37.330;2023-07-29T04:39:18;9.85;;;3.38;;
72941;SDS011;69665;55.822;37.330;2023-07-29T04:41:43;8.38;;;3.47;;
72941;SDS011;69665;55.822;37.330;2023-07-29T04:44:09;6.45;;;2.95;;
72941;SDS011;69665;55.822;37.330;2023-07-29T04:46:35;5.43;;;3.00;;
72941;SDS011;69665;55.822;37.330;2023-07-29T04:49:01;5.43;;;2.90;;
72941;SDS011;69665;55.822;37.330;2023-07-29T04:51:27;8.10;;;2.90;;
72941;SDS011;69665;55.822;37.330;2023-07-29T04:53:53;6.85;;;2.85;;
72941;SDS011;69665;55.822;37.330;2023-07-29T04:56:19;7.65;;;2.70;;
72941;SDS011;69665;55.822;37.330;2023-07-29T04:58:45;6.28;;;2.72;;
72941;SDS011;69665;55.822;37.330;2023-07-29T05:01:10;6.13;;;2.97;;
72941;SDS011;69665;55.822;37.330;2023-07-29T05:03:36;5.10;;;2.47;;
72941;SDS011;69665;55.822;37.330;2023-07-29T05:06:03;5.32;;;2.13;;
72941;SDS011;69665;55.822;37.330;2023-07-29T05:08:29;6.00;;;2.60;;
72941;SDS011;69665;55.822;37.330;2023-07-29T05:10:54;7.05;;;2.80;;
72941;SDS011;69665;55.822;37.330;2023-07-29T05:13:21;7.28;;;3.20;;
72941;SDS011;69665;55.822;37.330;2023-07-29T05:15:47;5.28;;;2.53;;
72941;SDS011;69665;55.822;37.330;2023-07-29T05:18:13;5.28;;;2.70;;
72941;SDS011;69665;55.822;37.330;2023-07-29T05:20:39;5.07;;;2.67;;
72941;SDS011;69665;55.822;37.330;2023-07-29T05:23:04;5.88;;;2.60;;
72941;SDS011;69665;55.822;37.330;2023-07-29T05:25:30;6.13;;;2.22;;
72941;SDS011;69665;55.822;37.330;2023-07-29T05:27:55;5.75;;;2.42;;
72941;SDS011;69665;55.822;37.330;2023-07-29T05:30:22;5.15;;;2.38;;
72941;SDS011;69665;55.822;37.330;2023-07-29T05:32:48;7.28;;;2.38;;
72941;SDS011;69665;55.822;37.330;2023-07-29T05:35:13;5.43;;;2.20;;
72941;SDS011;69665;55.822;37.330;2023-07-29T05:37:40;6.75;;;2.53;;
72941;SDS011;69665;55.822;37.330;2023-07-29T05:40:06;6.60;;;2.65;;
72941;SDS011;69665;55.822;37.330;2023-07-29T05:42:32;6.93;;;2.50;;
72941;SDS011;69665;55.822;37.330;2023-07-29T05:44:58;4.72;;;2.22;;
72941;SDS011;69665;55.822;37.330;2023-07-29T05:47:24;7.97;;;2.60;;
72941;SDS011;69665;55.822;37.330;2023-07-29T05:49:49;4.80;;;2.25;;
72941;SDS011;69665;55.822;37.330;2023-07-29T05:52:15;6.30;;;2.83;;
72941;SDS011;69665;55.822;37.330;2023-07-29T05:54:40;4.97;;;2.30;;
72941;SDS011;69665;55.822;37.330;2023-07-29T05:57:09;4.57;;;2.30;;
72941;SDS011;69665;55.822;37.330;2023-07-29T05:59:34;4.72;;;2.45;;
72941;SDS011;69665;55.822;37.330;2023-07-29T06:02:00;5.53;;;2.83;;
72941;SDS011;69665;55.822;37.330;2023-07-29T06:04:25;5.38;;;2.63;;
72941;SDS011;69665;55.822;37.330;2023-07-29T06:06:51;4.32;;;2.20;;
72941;SDS011;69665;55.822;37.330;2023-07-29T06:09:16;7.57;;;2.50;;
72941;SDS011;69665;55.822;37.330;2023-07-29T06:11:42;5.57;;;2.60;;
72941;SDS011;69665;55.822;37.330;2023-07-29T06:14:07;4.82;;;2.15;;
72941;SDS011;69665;55.822;37.330;2023-07-29T06:16:33;8.43;;;2.60;;
72941;SDS011;69665;55.822;37.330;2023-07-29T06:18:58;7.45;;;2.60;;
72941;SDS011;69665;55.822;37.330;2023-07-29T06:21:24;5.78;;;2.33;;
72941;SDS011;69665;55.822;37.330;2023-07-29T06:23:49;4.72;;;2.40;;
72941;SDS011;69665;55.822;37.330;2023-07-29T06:26:15;5.63;;;2.50;;
72941;SDS011;69665;55.822;37.330;2023-07-29T06:28:40;4.50;;;2.22;;
72941;SDS011;69665;55.822;37.330;2023-07-29T06:31:06;5.15;;;2.30;;
72941;SDS011;69665;55.822;37.330;2023-07-29T06:33:31;7.30;;;2.83;;
72941;SDS011;69665;55.822;37.330;2023-07-29T06:35:57;5.88;;;2.55;;
72941;SDS011;69665;55.822;37.330;2023-07-29T06:38:23;5.35;;;2.42;;
72941;SDS011;69665;55.822;37.330;2023-07-29T06:40:50;5.00;;;2.53;;
72941;SDS011;69665;55.822;37.330;2023-07-29T06:43:16;4.65;;;2.28;;
72941;SDS011;69665;55.822;37.330;2023-07-29T06:45:42;4.60;;;2.47;;
72941;SDS011;69665;55.822;37.330;2023-07-29T06:48:08;6.85;;;2.67;;
72941;SDS011;69665;55.822;37.330;2023-07-29T06:50:33;5.93;;;2.70;;
72941;SDS011;69665;55.822;37.330;2023-07-29T06:52:59;4.47;;;2.40;;
72941;SDS011;69665;55.822;37.330;2023-07-29T06:55:24;5.20;;;2.13;;
72941;SDS011;69665;55.822;37.330;2023-07-29T06:57:50;5.47;;;2.50;;
72941;SDS011;69665;55.822;37.330;2023-07-29T07:00:15;5.07;;;2.40;;
72941;SDS011;69665;55.822;37.330;2023-07-29T07:02:41;8.60;;;2.80;;
72941;SDS011;69665;55.822;37.330;2023-07-29T07:05:07;7.05;;;2.50;;
72941;SDS011;69665;55.822;37.330;2023-07-29T07:07:32;6.93;;;2.67;;
72941;SDS011;69665;55.822;37.330;2023-07-29T07:09:58;5.78;;;2.67;;
72941;SDS011;69665;55.822;37.330;2023-07-29T07:12:24;5.68;;;2.10;;
72941;SDS011;69665;55.822;37.330;2023-07-29T07:14:49;6.07;;;2.55;;
72941;SDS011;69665;55.822;37.330;2023-07-29T07:17:15;5.13;;;2.63;;
72941;SDS011;69665;55.822;37.330;2023-07-29T07:19:40;5.25;;;2.33;;
72941;SDS011;69665;55.822;37.330;2023-07-29T07:22:06;4.38;;;2.25;;
72941;SDS011;69665;55.822;37.330;2023-07-29T07:24:31;5.03;;;2.15;;
72941;SDS011;69665;55.822;37.330;2023-07-29T07:26:57;4.88;;;2.40;;
72941;SDS011;69665;55.822;37.330;2023-07-29T07:29:22;5.07;;;2.17;;
72941;SDS011;69665;55.822;37.330;2023-07-29T07:31:51;5.55;;;2.38;;
72941;SDS011;69665;55.822;37.330;2023-07-29T07:34:20;6.07;;;2.63;;
72941;SDS011;69665;55.822;37.330;2023-07-29T07:36:46;5.32;;;2.40;;
72941;SDS011;69665;55.822;37.330;2023-07-29T07:39:12;5.40;;;2.90;;
72941;SDS011;69665;55.822;37.330;2023-07-29T07:41:37;7.47;;;2.45;;
72941;SDS011;69665;55.822;37.330;2023-07-29T07:44:03;7.47;;;2.85;;
72941;SDS011;69665;55.822;37.330;2023-07-29T07:46:29;4.90;;;2.50;;
72941;SDS011;69665;55.822;37.330;2023-07-29T07:48:54;4.63;;;2.22;;
72941;SDS011;69665;55.822;37.330;2023-07-29T07:51:20;6.97;;;2.67;;
72941;SDS011;69665;55.822;37.330;2023-07-29T07:53:45;4.53;;;2.22;;
72941;SDS011;69665;55.822;37.330;2023-07-29T07:56:11;5.40;;;2.60;;
72941;SDS011;69665;55.822;37.330;2023-07-29T07:58:36;4.75;;;2.10;;
72941;SDS011;69665;55.822;37.330;2023-07-29T08:01:03;5.10;;;2.20;;
72941;SDS011;69665;55.822;37.330;2023-07-29T08:03:28;5.75;;;2.67;;
72941;SDS011;69665;55.822;37.330;2023-07-29T08:05:57;5.78;;;2.40;;
72941;SDS011;69665;55.822;37.330;2023-07-29T08:08:23;7.07;;;2.50;;
72941;SDS011;69665;55.822;37.330;2023-07-29T08:10:48;5.20;;;2.38;;
72941;SDS011;69665;55.822;37.330;2023-07-29T08:13:14;5.88;;;2.70;;
72941;SDS011;69665;55.822;37.330;2023-07-29T08:15:39;5.43;;;2.40;;
72941;SDS011;69665;55.822;37.330;2023-07-29T08:18:06;4.95;;;2.40;;
72941;SDS011;69665;55.822;37.330;2023-07-29T08:20:32;4.80;;;2.55;;
72941;SDS011;69665;55.822;37.330;2023-07-29T08:22:58;4.45;;;2.60;;
72941;SDS011;69665;55.822;37.330;2023-07-29T08:25:23;4.40;;;2.08;;
72941;SDS011;69665;55.822;37.330;2023-07-29T08:27:49;5.15;;;2.30;;
72941;SDS011;69665;55.822;37.330;2023-07-29T08:30:14;5.43;;;2.30;;
72941;SDS011;69665;55.822;37.330;2023-07-29T08:32:41;4.60;;;2.30;;
72941;SDS011;69665;55.822;37.330;2023-07-29T08:35:07;5.22;;;2.63;;
72941;SDS011;69665;55.822;37.330;2023-07-29T08:37:33;6.60;;;2.55;;
72941;SDS011;69665;55.822;37.330;2023-07-29T08:39:59;4.88;;;2.42;;
72941;SDS011;69665;55.822;37.330;2023-07-29T08:42:27;4.95;;;2.15;;
72941;SDS011;69665;55.822;37.330;2023-07-29T08:47:22;5.15;;;2.50;;
72941;SDS011;69665;55.822;37.330;2023-07-29T08:49:48;5.78;;;2.70;;
72941;SDS011;69665;55.822;37.330;2023-07-29T08:52:16;6.93;;;2.53;;
72941;SDS011;69665;55.822;37.330;2023-07-29T08:54:41;4.47;;;2.10;;
72941;SDS011;69665;55.822;37.330;2023-07-29T08:57:07;4.43;;;2.38;;
72941;SDS011;69665;55.822;37.330;2023-07-29T08:59:32;5.78;;;2.47;;
72941;SDS011;69665;55.822;37.330;2023-07-29T09:01:58;6.78;;;2.30;;
72941;SDS011;69665;55.822;37.330;2023-07-29T09:04:24;6.22;;;2.60;;
72941;SDS011;69665;55.822;37.330;2023-07-29T09:06:50;5.78;;;2.67;;
72941;SDS011;69665;55.822;37.330;2023-07-29T09:09:16;6.68;;;3.25;;
72941;SDS011;69665;55.822;37.330;2023-07-29T09:11:43;5.40;;;2.65;;
72941;SDS011;69665;55.822;37.330;2023-07-29T09:14:09;5.93;;;2.40;;
72941;SDS011;69665;55.822;37.330;2023-07-29T09:16:35;5.82;;;3.20;;
72941;SDS011;69665;55.822;37.330;2023-07-29T09:19:01;6.20;;;2.35;;
72941;SDS011;69665;55.822;37.330;2023-07-29T09:21:28;5.85;;;2.38;;
72941;SDS011;69665;55.822;37.330;2023-07-29T09:23:54;4.80;;;2.58;;
72941;SDS011;69665;55.822;37.330;2023-07-29T09:26:24;7.43;;;2.70;;
72941;SDS011;69665;55.822;37.330;2023-07-29T09:28:53;6.03;;;2.60;;
72941;SDS011;69665;55.822;37.330;2023-07-29T09:31:21;5.00;;;2.50;;
72941;SDS011;69665;55.822;37.330;2023-07-29T09:33:46;4.93;;;2.50;;
72941;SDS011;69665;55.822;37.330;2023-07-29T09:36:12;6.18;;;3.00;;
72941;SDS011;69665;55.822;37.330;2023-07-29T09:38:37;6.80;;;2.75;;
72941;SDS011;69665;55.822;37.330;2023-07-29T09:41:03;6.38;;;2.55;;
72941;SDS011;69665;55.822;37.330;2023-07-29T09:43:29;6.25;;;2.53;;
72941;SDS011;69665;55.822;37.330;2023-07-29T09:45:56;5.65;;;2.47;;
72941;SDS011;69665;55.822;37.330;2023-07-29T09:48:24;5.32;;;2.60;;
72941;SDS011;69665;55.822;37.330;2023-07-29T09:50:50;8.05;;;2.85;;
72941;SDS011;69665;55.822;37.330;2023-07-29T09:53:15;6.00;;;3.20;;
72941;SDS011;69665;55.822;37.330;2023-07-29T09:55:46;4.68;;;2.55;;
72941;SDS011;69665;55.822;37.330;2023-07-29T09:58:12;4.95;;;2.55;;
72941;SDS011;69665;55.822;37.330;2023-07-29T10:00:37;6.18;;;2.53;;
72941;SDS011;69665;55.822;37.330;2023-07-29T10:03:04;6.13;;;3.45;;
72941;SDS011;69665;55.822;37.330;2023-07-29T10:05:29;5.53;;;2.63;;
72941;SDS011;69665;55.822;37.330;2023-07-29T10:07:55;7.85;;;3.28;;
72941;SDS011;69665;55.822;37.330;2023-07-29T10:10:21;6.43;;;2.75;;
72941;SDS011;69665;55.822;37.330;2023-07-29T10:12:46;7.85;;;2.95;;
72941;SDS011;69665;55.822;37.330;2023-07-29T10:15:12;7.03;;;2.92;;
72941;SDS011;69665;55.822;37.330;2023-07-29T10:17:38;8.00;;;3.17;;
72941;SDS011;69665;55.822;37.330;2023-07-29T10:20:05;5.25;;;2.58;;
72941;SDS011;69665;55.822;37.330;2023-07-29T10:22:36;5.38;;;2.80;;
72941;SDS011;69665;55.822;37.330;2023-07-29T10:27:43;5.80;;;3.00;;
72941;SDS011;69665;55.822;37.330;2023-07-29T10:30:11;6.45;;;2.95;;
72941;SDS011;69665;55.822;37.330;2023-07-29T10:32:37;5.30;;;2.22;;
72941;SDS011;69665;55.822;37.330;2023-07-29T10:35:03;6.63;;;2.45;;
72941;SDS011;69665;55.822;37.330;2023-07-29T10:37:29;5.43;;;2.53;;
72941;SDS011;69665;55.822;37.330;2023-07-29T10:39:55;5.20;;;2.10;;
72941;SDS011;69665;55.822;37.330;2023-07-29T10:42:21;5.20;;;2.55;;
72941;SDS011;69665;55.822;37.330;2023-07-29T10:44:47;6.65;;;2.35;;
72941;SDS011;69665;55.822;37.330;2023-07-29T10:47:17;7.65;;;2.47;;
72941;SDS011;69665;55.822;37.330;2023-07-29T10:49:43;5.60;;;2.75;;
72941;SDS011;69665;55.822;37.330;2023-07-29T10:52:13;5.32;;;2.40;;
72941;SDS011;69665;55.822;37.330;2023-07-29T10:54:49;4.07;;;2.10;;
72941;SDS011;69665;55.822;37.330;2023-07-29T10:57:15;4.20;;;1.90;;
72941;SDS011;69665;55.822;37.330;2023-07-29T10:59:41;4.93;;;2.20;;
72941;SDS011;69665;55.822;37.330;2023-07-29T11:02:18;5.20;;;2.20;;
72941;SDS011;69665;55.822;37.330;2023-07-29T11:04:50;5.00;;;2.10;;
72941;SDS011;69665;55.822;37.330;2023-07-29T11:09:45;4.57;;;2.17;;
72941;SDS011;69665;55.822;37.330;2023-07-29T11:15:43;6.07;;;2.55;;
72941;SDS011;69665;55.822;37.330;2023-07-29T11:17:54;6.32;;;3.03;;
72941;SDS011;69665;55.822;37.330;2023-07-29T11:20:20;7.65;;;3.40;;
72941;SDS011;69665;55.822;37.330;2023-07-29T11:22:47;4.60;;;1.83;;
72941;SDS011;69665;55.822;37.330;2023-07-29T11:25:13;5.97;;;1.75;;
72941;SDS011;69665;55.822;37.330;2023-07-29T11:27:39;4.18;;;1.70;;
72941;SDS011;69665;55.822;37.330;2023-07-29T11:30:06;4.53;;;1.90;;
72941;SDS011;69665;55.822;37.330;2023-07-29T11:32:34;5.85;;;1.83;;
72941;SDS011;69665;55.822;37.330;2023-07-29T11:37:33;6.45;;;2.10;;
72941;SDS011;69665;55.822;37.330;2023-07-29T11:39:59;4.43;;;1.92;;
72941;SDS011;69665;55.822;37.330;2023-07-29T11:42:25;4.22;;;1.83;;
72941;SDS011;69665;55.822;37.330;2023-07-29T11:44:51;5.60;;;1.90;;
72941;SDS011;69665;55.822;37.330;2023-07-29T11:47:16;4.82;;;2.10;;
72941;SDS011;69665;55.822;37.330;2023-07-29T11:49:42;7.22;;;2.30;;
72941;SDS011;69665;55.822;37.330;2023-07-29T11:52:08;4.43;;;1.90;;
72941;SDS011;69665;55.822;37.330;2023-07-29T11:54:37;5.30;;;2.35;;
72941;SDS011;69665;55.822;37.330;2023-07-29T11:57:06;6.88;;;2.83;;
72941;SDS011;69665;55.822;37.330;2023-07-29T11:59:32;5.68;;;2.10;;
72941;SDS011;69665;55.822;37.330;2023-07-29T12:01:58;5.05;;;2.00;;
72941;SDS011;69665;55.822;37.330;2023-07-29T12:04:25;5.68;;;2.20;;
72941;SDS011;69665;55.822;37.330;2023-07-29T12:06:51;5.63;;;2.10;;
72941;SDS011;69665;55.822;37.330;2023-07-29T12:09:16;5.57;;;1.88;;
72941;SDS011;69665;55.822;37.330;2023-07-29T12:11:42;4.30;;;2.03;;
72941;SDS011;69665;55.822;37.330;2023-07-29T12:14:08;4.05;;;1.90;;
72941;SDS011;69665;55.822;37.330;2023-07-29T12:16:40;5.80;;;2.78;;
72941;SDS011;69665;55.822;37.330;2023-07-29T12:19:06;6.32;;;1.70;;
72941;SDS011;69665;55.822;37.330;2023-07-29T12:21:31;4.80;;;1.85;;
72941;SDS011;69665;55.822;37.330;2023-07-29T12:23:57;3.97;;;1.80;;
72941;SDS011;69665;55.822;37.330;2023-07-29T12:26:26;10.15;;;2.45;;
72941;SDS011;69665;55.822;37.330;2023-07-29T12:28:52;4.60;;;1.90;;
72941;SDS011;69665;55.822;37.330;2023-07-29T12:31:17;4.57;;;1.90;;
72941;SDS011;69665;55.822;37.330;2023-07-29T12:33:43;6.13;;;1.80;;
72941;SDS011;69665;55.822;37.330;2023-07-29T12:36:08;6.22;;;2.03;;
72941;SDS011;69665;55.822;37.330;2023-07-29T12:38:35;5.00;;;2.17;;
72941;SDS011;69665;55.822;37.330;2023-07-29T12:41:01;5.85;;;2.08;;
72941;SDS011;69665;55.822;37.330;2023-07-29T12:43:27;4.63;;;2.25;;
72941;SDS011;69665;55.822;37.330;2023-07-29T12:45:53;6.57;;;2.33;;
72941;SDS011;69665;55.822;37.330;2023-07-29T12:48:18;4.43;;;1.85;;
72941;SDS011;69665;55.822;37.330;2023-07-29T12:50:44;6.75;;;2.25;;
72941;SDS011;69665;55.822;37.330;2023-07-29T12:53:09;4.88;;;2.20;;
72941;SDS011;69665;55.822;37.330;2023-07-29T12:55:38;4.47;;;2.10;;
72941;SDS011;69665;55.822;37.330;2023-07-29T12:58:04;10.07;;;2.47;;
72941;SDS011;69665;55.822;37.330;2023-07-29T13:00:30;8.93;;;1.92;;
72941;SDS011;69665;55.822;37.330;2023-07-29T13:02:55;5.15;;;2.22;;
72941;SDS011;69665;55.822;37.330;2023-07-29T13:05:21;5.50;;;2.00;;
72941;SDS011;69665;55.822;37.330;2023-07-29T13:07:47;5.50;;;2.25;;
72941;SDS011;69665;55.822;37.330;2023-07-29T13:10:13;6.70;;;2.00;;
72941;SDS011;69665;55.822;37.330;2023-07-29T13:12:38;5.47;;;1.92;;
72941;SDS011;69665;55.822;37.330;2023-07-29T13:15:04;4.47;;;2.15;;
72941;SDS011;69665;55.822;37.330;2023-07-29T13:17:30;4.75;;;1.98;;
72941;SDS011;69665;55.822;37.330;2023-07-29T13:19:56;4.72;;;2.00;;
72941;SDS011;69665;55.822;37.330;2023-07-29T13:22:21;4.40;;;1.80;;
72941;SDS011;69665;55.822;37.330;2023-07-29T13:24:47;4.82;;;1.95;;
72941;SDS011;69665;55.822;37.330;2023-07-29T13:27:13;6.07;;;2.38;;
72941;SDS011;69665;55.822;37.330;2023-07-29T13:29:39;6.07;;;2.17;;
72941;SDS011;69665;55.822;37.330;2023-07-29T13:32:05;5.57;;;2.42;;
72941;SDS011;69665;55.822;37.330;2023-07-29T13:34:31;5.40;;;1.83;;
72941;SDS011;69665;55.822;37.330;2023-07-29T13:36:59;5.53;;;2.30;;
72941;SDS011;69665;55.822;37.330;2023-07-29T13:39:25;5.70;;;2.30;;
72941;SDS011;69665;55.822;37.330;2023-07-29T13:41:50;5.15;;;1.80;;
72941;SDS011;69665;55.822;37.330;2023-07-29T13:44:16;6.13;;;2.00;;
72941;SDS011;69665;55.822;37.330;2023-07-29T13:46:41;4.72;;;2.13;;
72941;SDS011;69665;55.822;37.330;2023-07-29T13:49:07;4.53;;;1.88;;
72941;SDS011;69665;55.822;37.330;2023-07-29T13:51:33;6.40;;;2.10;;
72941;SDS011;69665;55.822;37.330;2023-07-29T13:53:58;3.97;;;1.92;;
72941;SDS011;69665;55.822;37.330;2023-07-29T13:56:24;4.50;;;2.20;;
72941;SDS011;69665;55.822;37.330;2023-07-29T13:58:50;5.18;;;1.85;;
72941;SDS011;69665;55.822;37.330;2023-07-29T14:01:15;5.10;;;1.77;;
72941;SDS011;69665;55.822;37.330;2023-07-29T14:03:41;4.55;;;2.00;;
72941;SDS011;69665;55.822;37.330;2023-07-29T14:06:06;5.05;;;2.30;;
72941;SDS011;69665;55.822;37.330;2023-07-29T14:08:32;6.13;;;2.40;;
72941;SDS011;69665;55.822;37.330;2023-07-29T14:10:57;5.10;;;1.85;;
72941;SDS011;69665;55.822;37.330;2023-07-29T14:13:23;6.03;;;2.53;;
72941;SDS011;69665;55.822;37.330;2023-07-29T14:15:48;4.60;;;2.17;;
72941;SDS011;69665;55.822;37.330;2023-07-29T14:18:14;12.77;;;4.60;;
72941;SDS011;69665;55.822;37.330;2023-07-29T14:20:39;7.30;;;2.40;;
72941;SDS011;69665;55.822;37.330;2023-07-29T14:23:05;7.82;;;2.85;;
72941;SDS011;69665;55.822;37.330;2023-07-29T14:25:30;7.22;;;2.95;;
72941;SDS011;69665;55.822;37.330;2023-07-29T14:27:56;9.57;;;3.05;;
72941;SDS011;69665;55.822;37.330;2023-07-29T14:30:21;8.07;;;2.83;;
72941;SDS011;69665;55.822;37.330;2023-07-29T14:32:48;6.90;;;2.40;;
72941;SDS011;69665;55.822;37.330;2023-07-29T14:35:13;9.07;;;2.88;;
72941;SDS011;69665;55.822;37.330;2023-07-29T14:37:39;5.03;;;2.22;;
72941;SDS011;69665;55.822;37.330;2023-07-29T14:40:05;4.95;;;2.00;;
72941;SDS011;69665;55.822;37.330;2023-07-29T14:42:31;6.07;;;2.50;;
72941;SDS011;69665;55.822;37.330;2023-07-29T14:44:56;5.63;;;2.33;;
72941;SDS011;69665;55.822;37.330;2023-07-29T14:47:22;4.97;;;2.35;;
72941;SDS011;69665;55.822;37.330;2023-07-29T14:49:48;4.38;;;2.20;;
72941;SDS011;69665;55.822;37.330;2023-07-29T14:52:14;4.60;;;2.20;;